createdAt,value
2023-11-25T00:00:10.356Z,1127.00
2023-11-25T00:01:10.442Z,1128.00
2023-11-25T00:02:10.414Z,1123.00
2023-11-25T00:03:10.329Z,1122.00
2023-11-25T00:04:10.348Z,1124.00
2023-11-25T00:05:10.323Z,1121.00
2023-11-25T00:06:10.293Z,1121.00
2023-11-25T00:07:10.313Z,1121.00
2023-11-25T00:08:10.302Z,1122.00
2023-11-25T00:09:10.245Z,1121.00
2023-11-25T00:10:10.423Z,1121.00
2023-11-25T00:11:18.031Z,1122.00
2023-11-25T00:12:11.232Z,1124.00
2023-11-25T00:13:10.324Z,1123.00
2023-11-25T00:14:10.215Z,1124.00
2023-11-25T00:15:10.215Z,1123.00
2023-11-25T00:16:10.246Z,1118.00
2023-11-25T00:17:10.212Z,1114.00
2023-11-25T00:18:10.209Z,1113.00
2023-11-25T00:19:10.204Z,1111.00
2023-11-25T00:20:10.171Z,1109.00
2023-11-25T00:21:10.157Z,1107.00
2023-11-25T00:22:10.196Z,1108.00
2023-11-25T00:23:10.131Z,1107.00
2023-11-25T00:24:10.148Z,1106.00
2023-11-25T00:25:10.161Z,1104.00
2023-11-25T00:26:10.146Z,1101.00
2023-11-25T00:27:10.098Z,1100.00
2023-11-25T00:28:10.129Z,1099.00
2023-11-25T00:29:10.084Z,1095.00
2023-11-25T00:30:10.073Z,1095.00
2023-11-25T00:31:10.132Z,1095.00
2023-11-25T00:32:10.065Z,1097.00
2023-11-25T00:33:10.161Z,1097.00
2023-11-25T00:34:10.106Z,1097.00
2023-11-25T00:35:10.137Z,1096.00
2023-11-25T00:36:10.033Z,1095.00
2023-11-25T00:37:10.048Z,1096.00
2023-11-25T00:38:10.038Z,1094.00
2023-11-25T00:39:10.002Z,1093.00
2023-11-25T00:40:10.019Z,1091.00
2023-11-25T00:41:09.987Z,1090.00
2023-11-25T00:42:09.980Z,1088.00
2023-11-25T00:43:10.006Z,1088.00
2023-11-25T00:44:09.975Z,1089.00
2023-11-25T00:45:10.006Z,1087.00
2023-11-25T00:46:10.006Z,1088.00
2023-11-25T00:47:09.991Z,1087.00
2023-11-25T00:48:10.004Z,1087.00
2023-11-25T00:49:10.024Z,1084.00
2023-11-25T00:50:09.914Z,1085.00
2023-11-25T00:51:09.923Z,1081.00
2023-11-25T00:52:09.940Z,1080.00
2023-11-25T00:53:09.874Z,1076.00
2023-11-25T00:54:09.877Z,1075.00
2023-11-25T00:55:10.000Z,1074.00
2023-11-25T00:56:09.871Z,1074.00
2023-11-25T00:57:09.837Z,1074.00
2023-11-25T00:58:09.926Z,1077.00
2023-11-25T00:59:18.322Z,1077.00
2023-11-25T01:00:09.847Z,1076.00
2023-11-25T01:01:09.863Z,1073.00
2023-11-25T01:02:09.873Z,1073.00
2023-11-25T01:03:09.907Z,1072.00
2023-11-25T01:04:09.839Z,1071.00
2023-11-25T01:05:09.815Z,1070.00
2023-11-25T01:06:09.815Z,1066.00
2023-11-25T01:07:09.846Z,1061.00
2023-11-25T01:08:09.805Z,1056.00
2023-11-25T01:09:09.778Z,1057.00
2023-11-25T01:10:09.790Z,1054.00
2023-11-25T01:11:09.756Z,1053.00
2023-11-25T01:12:09.758Z,1054.00
2023-11-25T01:13:09.748Z,1056.00
2023-11-25T01:14:09.751Z,1054.00
2023-11-25T01:15:09.724Z,1056.00
2023-11-25T01:16:09.775Z,1059.00
2023-11-25T01:17:09.754Z,1060.00
2023-11-25T01:18:09.723Z,1060.00
2023-11-25T01:19:09.723Z,1060.00
2023-11-25T01:20:09.720Z,1060.00
2023-11-25T01:21:09.664Z,1059.00
2023-11-25T01:22:09.696Z,1060.00
2023-11-25T01:23:09.676Z,1058.00
2023-11-25T01:24:09.647Z,1056.00
2023-11-25T01:25:09.681Z,1053.00
2023-11-25T01:26:09.661Z,1050.00
2023-11-25T01:27:09.618Z,1049.00
2023-11-25T01:28:09.633Z,1048.00
2023-11-25T01:29:09.604Z,1044.00
2023-11-25T01:30:09.608Z,1045.00
2023-11-25T01:31:09.606Z,1044.00
2023-11-25T01:32:09.572Z,1043.00
2023-11-25T01:33:10.328Z,1040.00
2023-11-25T01:34:09.661Z,1040.00
2023-11-25T01:35:09.566Z,1039.00
2023-11-25T01:36:09.550Z,1038.00
2023-11-25T01:37:09.574Z,1039.00
2023-11-25T01:38:09.536Z,1039.00
2023-11-25T01:39:09.507Z,1039.00
2023-11-25T01:40:14.624Z,1038.00
2023-11-25T01:41:09.511Z,1039.00
2023-11-25T01:42:09.487Z,1037.00
2023-11-25T01:43:09.497Z,1036.00
2023-11-25T01:44:09.466Z,1035.00
2023-11-25T01:45:09.472Z,1035.00
2023-11-25T01:46:09.486Z,1032.00
2023-11-25T01:47:09.538Z,1032.00
2023-11-25T01:48:09.484Z,1029.00
2023-11-25T01:49:12.946Z,1028.00
2023-11-25T01:50:09.403Z,1026.00
2023-11-25T01:51:09.418Z,1021.00
2023-11-25T01:52:09.451Z,1022.00
2023-11-25T01:53:09.404Z,1019.00
2023-11-25T01:54:09.374Z,1020.00
2023-11-25T01:55:09.393Z,1015.00
2023-11-25T01:56:09.357Z,1016.00
2023-11-25T01:57:09.356Z,1015.00
2023-11-25T01:58:09.357Z,1015.00
2023-11-25T01:59:09.325Z,1014.00
2023-11-25T02:00:09.540Z,1015.00
2023-11-25T02:01:09.329Z,1015.00
2023-11-25T02:02:09.472Z,1018.00
2023-11-25T02:03:09.380Z,1019.00
2023-11-25T02:04:09.453Z,1018.00
2023-11-25T02:05:09.476Z,1014.00
2023-11-25T02:06:09.269Z,1013.00
2023-11-25T02:07:09.276Z,1012.00
2023-11-25T02:08:09.247Z,1012.00
2023-11-25T02:09:09.229Z,1011.00
2023-11-25T02:10:09.262Z,1010.00
2023-11-25T02:11:09.213Z,1011.00
2023-11-25T02:12:09.212Z,1008.00
2023-11-25T02:13:09.255Z,1006.00
2023-11-25T02:14:09.243Z,1005.00
2023-11-25T02:15:09.188Z,1004.00
2023-11-25T02:16:09.244Z,1002.00
2023-11-25T02:17:09.227Z,1000.00
2023-11-25T02:18:09.195Z,994.00
2023-11-25T02:19:09.172Z,990.00
2023-11-25T02:20:09.208Z,987.00
2023-11-25T02:21:09.132Z,988.00
2023-11-25T02:22:09.177Z,985.00
2023-11-25T02:23:09.114Z,984.00
2023-11-25T02:24:09.122Z,984.00
2023-11-25T02:25:09.148Z,984.00
2023-11-25T02:26:09.103Z,983.00
2023-11-25T02:27:09.074Z,982.00
2023-11-25T02:28:09.095Z,980.00
2023-11-25T02:29:09.059Z,980.00
2023-11-25T02:30:09.057Z,979.00
2023-11-25T02:31:09.317Z,978.00
2023-11-25T02:32:09.094Z,979.00
2023-11-25T02:33:09.068Z,976.00
2023-11-25T02:34:09.044Z,979.00
2023-11-25T02:35:09.011Z,978.00
2023-11-25T02:36:09.000Z,977.00
2023-11-25T02:37:09.021Z,978.00
2023-11-25T02:38:08.978Z,975.00
2023-11-25T02:39:08.978Z,974.00
2023-11-25T02:40:08.990Z,971.00
2023-11-25T02:41:08.964Z,970.00
2023-11-25T02:42:08.950Z,970.00
2023-11-25T02:43:08.989Z,967.00
2023-11-25T02:44:08.932Z,965.00
2023-11-25T02:45:08.925Z,964.00
2023-11-25T02:46:08.954Z,966.00
2023-11-25T02:47:08.960Z,965.00
2023-11-25T02:48:08.983Z,965.00
2023-11-25T02:49:08.894Z,966.00
2023-11-25T02:50:08.897Z,967.00
2023-11-25T02:51:08.857Z,965.00
2023-11-25T02:52:08.913Z,963.00
2023-11-25T02:53:08.836Z,962.00
2023-11-25T02:54:08.844Z,961.00
2023-11-25T02:55:08.823Z,964.00
2023-11-25T02:56:08.822Z,961.00
2023-11-25T02:57:08.803Z,963.00
2023-11-25T02:58:08.836Z,961.00
2023-11-25T02:59:08.800Z,963.00
2023-11-25T03:00:08.799Z,964.00
2023-11-25T03:01:08.906Z,964.00
2023-11-25T03:02:08.841Z,963.00
2023-11-25T03:03:09.683Z,962.00
2023-11-25T03:04:08.819Z,963.00
2023-11-25T03:05:08.735Z,960.00
2023-11-25T03:06:08.724Z,957.00
2023-11-25T03:07:08.758Z,956.00
2023-11-25T03:08:08.722Z,959.00
2023-11-25T03:09:08.703Z,957.00
2023-11-25T03:10:08.756Z,955.00
2023-11-25T03:11:08.702Z,954.00
2023-11-25T03:12:08.700Z,952.00
2023-11-25T03:13:08.698Z,955.00
2023-11-25T03:14:08.733Z,954.00
2023-11-25T03:15:08.666Z,954.00
2023-11-25T03:16:08.732Z,954.00
2023-11-25T03:17:08.685Z,955.00
2023-11-25T03:18:08.684Z,955.00
2023-11-25T03:19:08.664Z,956.00
2023-11-25T03:20:08.603Z,955.00
2023-11-25T03:21:08.615Z,951.00
2023-11-25T03:22:08.621Z,947.00
2023-11-25T03:23:08.594Z,946.00
2023-11-25T03:24:08.586Z,946.00
2023-11-25T03:25:08.639Z,943.00
2023-11-25T03:26:08.550Z,941.00
2023-11-25T03:27:08.552Z,941.00
2023-11-25T03:28:08.574Z,938.00
2023-11-25T03:29:08.533Z,937.00
2023-11-25T03:30:08.557Z,937.00
2023-11-25T03:31:08.555Z,936.00
2023-11-25T03:32:08.569Z,934.00
2023-11-25T03:33:08.513Z,933.00
2023-11-25T03:34:08.539Z,933.00
2023-11-25T03:35:08.493Z,931.00
2023-11-25T03:36:08.497Z,930.00
2023-11-25T03:37:08.486Z,927.00
2023-11-25T03:38:08.472Z,926.00
2023-11-25T03:39:08.448Z,925.00
2023-11-25T03:40:08.493Z,927.00
2023-11-25T03:41:08.434Z,928.00
2023-11-25T03:42:08.447Z,927.00
2023-11-25T03:43:08.449Z,927.00
2023-11-25T03:44:08.398Z,927.00
2023-11-25T03:45:08.396Z,926.00
2023-11-25T03:46:08.451Z,924.00
2023-11-25T03:47:08.398Z,923.00
2023-11-25T03:48:08.393Z,924.00
2023-11-25T03:49:08.408Z,923.00
2023-11-25T03:50:08.351Z,923.00
2023-11-25T03:51:08.335Z,924.00
2023-11-25T03:52:08.353Z,921.00
2023-11-25T03:53:08.328Z,920.00
2023-11-25T03:54:08.308Z,919.00
2023-11-25T03:55:08.336Z,917.00
2023-11-25T03:56:08.462Z,913.00
2023-11-25T03:57:08.277Z,914.00
2023-11-25T03:58:08.326Z,914.00
2023-11-25T03:59:08.298Z,915.00
2023-11-25T04:00:08.264Z,915.00
2023-11-25T04:01:08.321Z,913.00
2023-11-25T04:02:08.382Z,912.00
2023-11-25T04:03:08.342Z,910.00
2023-11-25T04:04:08.336Z,909.00
2023-11-25T04:05:08.245Z,906.00
2023-11-25T04:06:08.216Z,906.00
2023-11-25T04:07:08.233Z,906.00
2023-11-25T04:08:08.195Z,904.00
2023-11-25T04:09:08.184Z,904.00
2023-11-25T04:10:08.207Z,904.00
2023-11-25T04:11:09.225Z,904.00
2023-11-25T04:12:08.165Z,904.00
2023-11-25T04:13:08.177Z,901.00
2023-11-25T04:14:08.138Z,901.00
2023-11-25T04:15:08.136Z,902.00
2023-11-25T04:16:08.124Z,901.00
2023-11-25T04:17:09.614Z,903.00
2023-11-25T04:18:08.149Z,903.00
2023-11-25T04:19:08.238Z,904.00
2023-11-25T04:20:08.088Z,901.00
2023-11-25T04:21:08.139Z,899.00
2023-11-25T04:22:08.098Z,895.00
2023-11-25T04:23:08.673Z,896.00
2023-11-25T04:24:08.056Z,893.00
2023-11-25T04:25:08.062Z,895.00
2023-11-25T04:26:08.099Z,895.00
2023-11-25T04:27:08.049Z,896.00
2023-11-25T04:28:08.558Z,894.00
2023-11-25T04:29:08.039Z,892.00
2023-11-25T04:30:08.103Z,890.00
2023-11-25T04:31:08.051Z,891.00
2023-11-25T04:32:08.143Z,892.00
2023-11-25T04:33:08.100Z,893.00
2023-11-25T04:34:08.071Z,893.00
2023-11-25T04:35:07.980Z,889.00
2023-11-25T04:36:08.114Z,892.00
2023-11-25T04:37:07.938Z,889.00
2023-11-25T04:38:07.969Z,888.00
2023-11-25T04:39:07.947Z,886.00
2023-11-25T04:40:07.939Z,883.00
2023-11-25T04:41:07.952Z,883.00
2023-11-25T04:42:07.900Z,882.00
2023-11-25T04:43:07.884Z,882.00
2023-11-25T04:44:07.900Z,881.00
2023-11-25T04:45:07.927Z,880.00
2023-11-25T04:46:07.860Z,880.00
2023-11-25T04:47:07.957Z,882.00
2023-11-25T04:48:07.882Z,881.00
2023-11-25T04:49:08.057Z,880.00
2023-11-25T04:50:07.827Z,879.00
2023-11-25T04:51:07.832Z,876.00
2023-11-25T04:52:07.798Z,875.00
2023-11-25T04:53:07.804Z,877.00
2023-11-25T04:54:07.784Z,875.00
2023-11-25T04:55:07.803Z,876.00
2023-11-25T04:56:07.760Z,874.00
2023-11-25T04:57:07.778Z,873.00
2023-11-25T04:58:07.737Z,870.00
2023-11-25T04:59:07.753Z,872.00
2023-11-25T05:00:07.723Z,872.00
2023-11-25T05:01:07.745Z,872.00
2023-11-25T05:02:07.829Z,872.00
2023-11-25T05:03:07.726Z,871.00
2023-11-25T05:04:07.710Z,870.00
2023-11-25T05:05:07.721Z,868.00
2023-11-25T05:06:07.666Z,868.00
2023-11-25T05:07:10.953Z,868.00
2023-11-25T05:08:07.686Z,868.00
2023-11-25T05:09:07.666Z,869.00
2023-11-25T05:10:07.702Z,869.00
2023-11-25T05:11:07.633Z,870.00
2023-11-25T05:12:07.629Z,871.00
2023-11-25T05:13:07.611Z,871.00
2023-11-25T05:14:07.607Z,869.00
2023-11-25T05:15:07.618Z,871.00
2023-11-25T05:16:07.582Z,870.00
2023-11-25T05:17:12.704Z,871.00
2023-11-25T05:18:07.597Z,870.00
2023-11-25T05:19:07.583Z,867.00
2023-11-25T05:20:07.550Z,868.00
2023-11-25T05:21:07.549Z,867.00
2023-11-25T05:22:07.522Z,866.00
2023-11-25T05:23:08.105Z,863.00
2023-11-25T05:24:07.506Z,863.00
2023-11-25T05:25:07.505Z,864.00
2023-11-25T05:26:07.525Z,862.00
2023-11-25T05:27:07.486Z,862.00
2023-11-25T05:28:07.493Z,862.00
2023-11-25T05:29:07.473Z,862.00
2023-11-25T05:30:07.466Z,863.00
2023-11-25T05:31:07.527Z,862.00
2023-11-25T05:32:07.596Z,862.00
2023-11-25T05:33:07.458Z,863.00
2023-11-25T05:34:07.433Z,862.00
2023-11-25T05:35:07.421Z,861.00
2023-11-25T05:36:07.408Z,860.00
2023-11-25T05:37:07.401Z,856.00
2023-11-25T05:38:07.389Z,858.00
2023-11-25T05:39:07.409Z,858.00
2023-11-25T05:40:07.453Z,858.00
2023-11-25T05:41:07.379Z,856.00
2023-11-25T05:42:07.355Z,858.00
2023-11-25T05:43:10.611Z,858.00
2023-11-25T05:44:07.331Z,857.00
2023-11-25T05:45:07.409Z,858.00
2023-11-25T05:46:07.330Z,857.00
2023-11-25T05:47:07.355Z,858.00
2023-11-25T05:48:07.312Z,859.00
2023-11-25T05:49:07.306Z,859.00
2023-11-25T05:50:07.299Z,862.00
2023-11-25T05:51:07.279Z,861.00
2023-11-25T05:52:07.261Z,862.00
2023-11-25T05:53:07.257Z,862.00
2023-11-25T05:54:07.282Z,862.00
2023-11-25T05:55:07.236Z,861.00
2023-11-25T05:56:07.235Z,860.00
2023-11-25T05:57:07.241Z,860.00
2023-11-25T05:58:07.209Z,860.00
2023-11-25T05:59:07.229Z,859.00
2023-11-25T06:00:07.200Z,856.00
2023-11-25T06:01:07.190Z,852.00
2023-11-25T06:02:07.180Z,854.00
2023-11-25T06:03:07.179Z,854.00
2023-11-25T06:04:07.254Z,852.00
2023-11-25T06:05:07.212Z,848.00
2023-11-25T06:06:07.139Z,848.00
2023-11-25T06:07:07.187Z,849.00
2023-11-25T06:08:07.121Z,848.00
2023-11-25T06:09:07.118Z,846.00
2023-11-25T06:10:07.103Z,847.00
2023-11-25T06:11:07.097Z,844.00
2023-11-25T06:12:07.098Z,846.00
2023-11-25T06:13:07.088Z,844.00
2023-11-25T06:14:07.091Z,843.00
2023-11-25T06:15:07.110Z,844.00
2023-11-25T06:16:07.074Z,846.00
2023-11-25T06:17:07.069Z,844.00
2023-11-25T06:18:07.137Z,843.00
2023-11-25T06:19:07.026Z,841.00
2023-11-25T06:20:07.042Z,841.00
2023-11-25T06:21:07.012Z,840.00
2023-11-25T06:22:07.000Z,842.00
2023-11-25T06:23:07.022Z,843.00
2023-11-25T06:24:07.003Z,840.00
2023-11-25T06:25:06.982Z,836.00
2023-11-25T06:26:06.969Z,837.00
2023-11-25T06:27:06.980Z,834.00
2023-11-25T06:28:06.954Z,833.00
2023-11-25T06:29:06.959Z,833.00
2023-11-25T06:30:06.981Z,833.00
2023-11-25T06:31:06.948Z,834.00
2023-11-25T06:32:06.911Z,833.00
2023-11-25T06:33:06.948Z,832.00
2023-11-25T06:34:06.945Z,829.00
2023-11-25T06:35:06.893Z,831.00
2023-11-25T06:36:06.894Z,831.00
2023-11-25T06:37:06.883Z,832.00
2023-11-25T06:38:06.941Z,831.00
2023-11-25T06:39:06.892Z,830.00
2023-11-25T06:40:06.846Z,832.00
2023-11-25T06:41:06.836Z,830.00
2023-11-25T06:42:06.822Z,830.00
2023-11-25T06:43:06.824Z,829.00
2023-11-25T06:44:06.873Z,827.00
2023-11-25T06:45:06.822Z,823.00
2023-11-25T06:46:06.809Z,824.00
2023-11-25T06:47:06.919Z,824.00
2023-11-25T06:48:06.817Z,823.00
2023-11-25T06:49:06.771Z,821.00
2023-11-25T06:50:06.799Z,823.00
2023-11-25T06:51:06.776Z,824.00
2023-11-25T06:52:06.762Z,825.00
2023-11-25T06:53:06.749Z,827.00
2023-11-25T06:54:06.746Z,828.00
2023-11-25T06:55:06.730Z,825.00
2023-11-25T06:56:06.727Z,823.00
2023-11-25T06:57:06.709Z,823.00
2023-11-25T06:58:06.700Z,823.00
2023-11-25T06:59:06.688Z,823.00
2023-11-25T07:00:06.703Z,822.00
2023-11-25T07:01:06.711Z,825.00
2023-11-25T07:02:06.733Z,823.00
2023-11-25T07:03:06.670Z,821.00
2023-11-25T07:04:06.638Z,818.00
2023-11-25T07:05:06.664Z,815.00
2023-11-25T07:06:06.636Z,813.00
2023-11-25T07:07:06.610Z,811.00
2023-11-25T07:08:06.664Z,811.00
2023-11-25T07:09:06.604Z,813.00
2023-11-25T07:10:06.595Z,810.00
2023-11-25T07:11:06.580Z,810.00
2023-11-25T07:12:06.583Z,807.00
2023-11-25T07:13:06.573Z,810.00
2023-11-25T07:14:06.601Z,813.00
2023-11-25T07:15:06.578Z,814.00
2023-11-25T07:16:06.546Z,812.00
2023-11-25T07:17:07.616Z,811.00
2023-11-25T07:18:06.526Z,810.00
2023-11-25T07:19:06.524Z,805.00
2023-11-25T07:20:06.494Z,805.00
2023-11-25T07:21:06.505Z,803.00
2023-11-25T07:22:06.481Z,803.00
2023-11-25T07:23:06.482Z,804.00
2023-11-25T07:24:06.476Z,805.00
2023-11-25T07:25:06.499Z,805.00
2023-11-25T07:26:06.477Z,805.00
2023-11-25T07:27:06.565Z,805.00
2023-11-25T07:28:06.444Z,806.00
2023-11-25T07:29:06.427Z,809.00
2023-11-25T07:30:06.427Z,809.00
2023-11-25T07:31:06.539Z,811.00
2023-11-25T07:32:06.430Z,810.00
2023-11-25T07:33:06.434Z,807.00
2023-11-25T07:34:06.388Z,806.00
2023-11-25T07:35:06.391Z,808.00
2023-11-25T07:36:16.407Z,810.00
2023-11-25T07:37:06.364Z,812.00
2023-11-25T07:38:06.356Z,812.00
2023-11-25T07:39:06.380Z,810.00
2023-11-25T07:40:06.334Z,808.00
2023-11-25T07:41:06.327Z,805.00
2023-11-25T07:42:06.333Z,804.00
2023-11-25T07:43:06.360Z,805.00
2023-11-25T07:44:06.296Z,804.00
2023-11-25T07:45:06.287Z,803.00
2023-11-25T07:46:06.288Z,802.00
2023-11-25T07:47:06.379Z,801.00
2023-11-25T07:48:06.312Z,802.00
2023-11-25T07:49:06.277Z,803.00
2023-11-25T07:50:06.273Z,802.00
2023-11-25T07:51:06.236Z,800.00
2023-11-25T07:52:06.248Z,801.00
2023-11-25T07:53:06.239Z,800.00
2023-11-25T07:54:06.219Z,800.00
2023-11-25T07:55:06.210Z,799.00
2023-11-25T07:56:06.211Z,802.00
2023-11-25T07:57:06.196Z,799.00
2023-11-25T07:58:06.188Z,796.00
2023-11-25T07:59:06.193Z,796.00
2023-11-25T08:00:06.165Z,797.00
2023-11-25T08:01:06.157Z,797.00
2023-11-25T08:02:14.383Z,793.00
2023-11-25T08:03:06.294Z,795.00
2023-11-25T08:04:06.174Z,796.00
2023-11-25T08:05:06.219Z,795.00
2023-11-25T08:06:06.109Z,794.00
2023-11-25T08:07:06.145Z,793.00
2023-11-25T08:08:06.112Z,792.00
2023-11-25T08:09:06.111Z,792.00
2023-11-25T08:10:06.077Z,791.00
2023-11-25T08:11:06.075Z,792.00
2023-11-25T08:12:06.075Z,793.00
2023-11-25T08:13:06.069Z,794.00
2023-11-25T08:14:06.050Z,791.00
2023-11-25T08:15:06.051Z,791.00
2023-11-25T08:16:06.079Z,793.00
2023-11-25T08:17:06.084Z,793.00
2023-11-25T08:18:06.067Z,793.00
2023-11-25T08:19:06.022Z,791.00
2023-11-25T08:20:06.005Z,788.00
2023-11-25T08:21:05.983Z,786.00
2023-11-25T08:22:05.976Z,786.00
2023-11-25T08:23:05.991Z,785.00
2023-11-25T08:24:05.954Z,783.00
2023-11-25T08:25:05.965Z,783.00
2023-11-25T08:26:05.973Z,779.00
2023-11-25T08:27:05.944Z,780.00
2023-11-25T08:28:05.933Z,780.00
2023-11-25T08:29:05.921Z,779.00
2023-11-25T08:30:05.910Z,781.00
2023-11-25T08:31:05.959Z,779.00
2023-11-25T08:32:06.020Z,779.00
2023-11-25T08:33:05.946Z,779.00
2023-11-25T08:34:05.884Z,777.00
2023-11-25T08:35:05.861Z,777.00
2023-11-25T08:36:05.870Z,778.00
2023-11-25T08:37:05.856Z,777.00
2023-11-25T08:38:15.933Z,776.00
2023-11-25T08:39:05.838Z,777.00
2023-11-25T08:40:05.831Z,774.00
2023-11-25T08:41:05.830Z,775.00
2023-11-25T08:42:05.806Z,775.00
2023-11-25T08:43:05.808Z,775.00
2023-11-25T08:44:05.811Z,773.00
2023-11-25T08:45:05.774Z,770.00
2023-11-25T08:46:05.868Z,771.00
2023-11-25T08:47:05.780Z,774.00
2023-11-25T08:48:05.840Z,774.00
2023-11-25T08:49:05.746Z,775.00
2023-11-25T08:50:05.759Z,775.00
2023-11-25T08:51:08.146Z,775.00
2023-11-25T08:52:05.737Z,773.00
2023-11-25T08:53:05.713Z,771.00
2023-11-25T08:54:05.712Z,771.00
2023-11-25T08:55:05.687Z,770.00
2023-11-25T08:56:05.695Z,771.00
2023-11-25T08:57:05.695Z,768.00
2023-11-25T08:58:05.677Z,770.00
2023-11-25T08:59:07.100Z,770.00
2023-11-25T09:00:05.665Z,771.00
2023-11-25T09:01:05.644Z,768.00
2023-11-25T09:02:05.817Z,768.00
2023-11-25T09:03:05.690Z,771.00
2023-11-25T09:04:05.663Z,772.00
2023-11-25T09:05:09.626Z,770.00
2023-11-25T09:06:06.612Z,768.00
2023-11-25T09:07:06.483Z,769.00
2023-11-25T09:08:05.722Z,770.00
2023-11-25T09:09:05.574Z,768.00
2023-11-25T09:10:05.576Z,766.00
2023-11-25T09:11:05.611Z,766.00
2023-11-25T09:12:05.619Z,764.00
2023-11-25T09:13:05.587Z,764.00
2023-11-25T09:14:05.826Z,763.00
2023-11-25T09:15:05.578Z,760.00
2023-11-25T09:16:05.600Z,758.00
2023-11-25T09:17:05.612Z,759.00
2023-11-25T09:18:05.551Z,759.00
2023-11-25T09:19:05.574Z,759.00
2023-11-25T09:20:05.494Z,759.00
2023-11-25T09:21:05.477Z,757.00
2023-11-25T09:22:05.459Z,758.00
2023-11-25T09:23:05.485Z,757.00
2023-11-25T09:24:05.438Z,755.00
2023-11-25T09:25:05.442Z,753.00
2023-11-25T09:26:05.458Z,753.00
2023-11-25T09:27:05.420Z,758.00
2023-11-25T09:28:05.427Z,757.00
2023-11-25T09:29:05.413Z,754.00
2023-11-25T09:30:05.409Z,755.00
2023-11-25T09:31:05.380Z,758.00
2023-11-25T09:32:05.389Z,757.00
2023-11-25T09:33:05.392Z,756.00
2023-11-25T09:34:05.462Z,755.00
2023-11-25T09:35:05.398Z,753.00
2023-11-25T09:36:05.341Z,754.00
2023-11-25T09:37:05.343Z,753.00
2023-11-25T09:38:05.317Z,752.00
2023-11-25T09:39:05.315Z,750.00
2023-11-25T09:40:05.307Z,754.00
2023-11-25T09:41:05.283Z,755.00
2023-11-25T09:42:05.289Z,755.00
2023-11-25T09:43:05.281Z,756.00
2023-11-25T09:44:05.269Z,752.00
2023-11-25T09:45:05.262Z,750.00
2023-11-25T09:46:05.307Z,747.00
2023-11-25T09:47:05.249Z,746.00
2023-11-25T09:48:05.308Z,747.00
2023-11-25T09:49:05.230Z,748.00
2023-11-25T09:50:05.225Z,748.00
2023-11-25T09:51:05.210Z,747.00
2023-11-25T09:52:05.205Z,747.00
2023-11-25T09:53:05.193Z,744.00
2023-11-25T09:54:05.208Z,741.00
2023-11-25T09:55:05.161Z,741.00
2023-11-25T09:56:05.358Z,740.00
2023-11-25T09:57:05.186Z,739.00
2023-11-25T09:58:05.154Z,735.00
2023-11-25T09:59:05.149Z,732.00
2023-11-25T10:00:05.152Z,732.00
2023-11-25T10:01:05.123Z,734.00
2023-11-25T10:02:05.209Z,735.00
2023-11-25T10:03:16.882Z,735.00
2023-11-25T10:04:05.200Z,735.00
2023-11-25T10:05:05.088Z,735.00
2023-11-25T10:06:05.109Z,734.00
2023-11-25T10:07:05.067Z,734.00
2023-11-25T10:08:05.069Z,735.00
2023-11-25T10:09:05.064Z,736.00
2023-11-25T10:10:05.069Z,735.00
2023-11-25T10:11:05.042Z,733.00
2023-11-25T10:12:05.030Z,731.00
2023-11-25T10:13:05.575Z,729.00
2023-11-25T10:14:05.034Z,730.00
2023-11-25T10:15:04.999Z,730.00
2023-11-25T10:16:05.040Z,728.00
2023-11-25T10:17:05.036Z,728.00
2023-11-25T10:18:05.023Z,727.00
2023-11-25T10:19:04.972Z,732.00
2023-11-25T10:20:04.970Z,731.00
2023-11-25T10:21:05.023Z,733.00
2023-11-25T10:22:04.940Z,733.00
2023-11-25T10:23:04.935Z,732.00
2023-11-25T10:24:09.957Z,731.00
2023-11-25T10:25:04.922Z,731.00
2023-11-25T10:26:05.262Z,731.00
2023-11-25T10:27:04.885Z,730.00
2023-11-25T10:28:04.897Z,727.00
2023-11-25T10:29:04.898Z,725.00
2023-11-25T10:30:04.924Z,725.00
2023-11-25T10:31:04.884Z,727.00
2023-11-25T10:32:04.861Z,728.00
2023-11-25T10:33:04.913Z,726.00
2023-11-25T10:34:04.925Z,727.00
2023-11-25T10:35:04.842Z,727.00
2023-11-25T10:36:04.836Z,729.00
2023-11-25T10:37:04.826Z,729.00
2023-11-25T10:38:04.904Z,728.00
2023-11-25T10:39:04.799Z,726.00
2023-11-25T10:40:04.789Z,724.00
2023-11-25T10:41:04.815Z,722.00
2023-11-25T10:42:04.767Z,725.00
2023-11-25T10:43:04.763Z,728.00
2023-11-25T10:44:04.814Z,729.00
2023-11-25T10:45:04.740Z,730.00
2023-11-25T10:46:04.807Z,729.00
2023-11-25T10:47:04.728Z,728.00
2023-11-25T10:48:04.790Z,728.00
2023-11-25T10:49:04.706Z,724.00
2023-11-25T10:50:04.767Z,723.00
2023-11-25T10:51:04.757Z,719.00
2023-11-25T10:52:04.689Z,716.00
2023-11-25T10:53:04.714Z,716.00
2023-11-25T10:54:04.702Z,716.00
2023-11-25T10:55:04.672Z,714.00
2023-11-25T10:56:04.736Z,715.00
2023-11-25T10:57:04.667Z,713.00
2023-11-25T10:58:04.660Z,713.00
2023-11-25T10:59:04.635Z,712.00
2023-11-25T11:00:04.634Z,710.00
2023-11-25T11:01:04.640Z,711.00
2023-11-25T11:02:04.693Z,711.00
2023-11-25T11:03:14.763Z,711.00
2023-11-25T11:04:04.598Z,710.00
2023-11-25T11:05:04.598Z,711.00
2023-11-25T11:06:04.575Z,711.00
2023-11-25T11:07:05.682Z,712.00
2023-11-25T11:08:04.562Z,713.00
2023-11-25T11:09:04.627Z,714.00
2023-11-25T11:10:04.539Z,715.00
2023-11-25T11:11:04.529Z,714.00
2023-11-25T11:12:04.516Z,712.00
2023-11-25T11:13:04.522Z,708.00
2023-11-25T11:14:04.515Z,707.00
2023-11-25T11:15:04.498Z,707.00
2023-11-25T11:16:04.494Z,707.00
2023-11-25T11:17:04.473Z,707.00
2023-11-25T11:18:04.600Z,708.00
2023-11-25T11:19:12.418Z,707.00
2023-11-25T11:20:04.486Z,705.00
2023-11-25T11:21:04.433Z,707.00
2023-11-25T11:22:04.443Z,708.00
2023-11-25T11:23:04.436Z,707.00
2023-11-25T11:24:04.417Z,704.00
2023-11-25T11:25:04.403Z,706.00
2023-11-25T11:26:04.399Z,706.00
2023-11-25T11:27:04.402Z,703.00
2023-11-25T11:28:04.385Z,704.00
2023-11-25T11:29:04.398Z,705.00
2023-11-25T11:30:04.381Z,703.00
2023-11-25T11:31:04.386Z,700.00
2023-11-25T11:32:04.511Z,703.00
2023-11-25T11:33:04.342Z,704.00
2023-11-25T11:34:04.334Z,702.00
2023-11-25T11:35:04.363Z,700.00
2023-11-25T11:36:04.307Z,699.00
2023-11-25T11:37:04.335Z,700.00
2023-11-25T11:38:04.323Z,701.00
2023-11-25T11:39:04.279Z,702.00
2023-11-25T11:40:04.280Z,702.00
2023-11-25T11:41:04.321Z,702.00
2023-11-25T11:42:04.270Z,703.00
2023-11-25T11:43:04.237Z,702.00
2023-11-25T11:44:04.457Z,702.00
2023-11-25T11:45:04.232Z,702.00
2023-11-25T11:46:04.250Z,702.00
2023-11-25T11:47:04.309Z,698.00
2023-11-25T11:48:04.525Z,697.00
2023-11-25T11:49:04.199Z,699.00
2023-11-25T11:50:04.216Z,700.00
2023-11-25T11:51:04.185Z,702.00
2023-11-25T11:52:04.184Z,700.00
2023-11-25T11:53:04.198Z,701.00
2023-11-25T11:54:04.176Z,703.00
2023-11-25T11:55:04.139Z,700.00
2023-11-25T11:56:04.206Z,698.00
2023-11-25T11:57:04.150Z,694.00
2023-11-25T11:58:04.131Z,695.00
2023-11-25T11:59:04.144Z,693.00
2023-11-25T12:00:04.127Z,695.00
2023-11-25T12:01:04.119Z,695.00
2023-11-25T12:02:06.140Z,697.00
2023-11-25T12:03:04.087Z,699.00
2023-11-25T12:04:04.162Z,699.00
2023-11-25T12:05:04.304Z,702.00
2023-11-25T12:06:04.075Z,703.00
2023-11-25T12:07:04.029Z,704.00
2023-11-25T12:08:04.033Z,704.00
2023-11-25T12:09:04.017Z,702.00
2023-11-25T12:10:04.002Z,700.00
2023-11-25T12:11:04.010Z,700.00
2023-11-25T12:12:03.994Z,698.00
2023-11-25T12:13:03.982Z,699.00
2023-11-25T12:14:04.046Z,700.00
2023-11-25T12:15:03.965Z,702.00
2023-11-25T12:16:03.955Z,702.00
2023-11-25T12:17:03.984Z,704.00
2023-11-25T12:18:14.039Z,705.00
2023-11-25T12:19:03.918Z,703.00
2023-11-25T12:20:04.009Z,703.00
2023-11-25T12:21:03.929Z,704.00
2023-11-25T12:22:03.894Z,705.00
2023-11-25T12:23:03.885Z,703.00
2023-11-25T12:24:03.894Z,704.00